sensor_id;sensor_type;location;lat;lon;timestamp;P1;durP1;ratioP1;P2;durP2;ratioP2
30862;SDS011;17573;55.922;37.540;2023-02-01T00:01:36;27.88;;;14.05;;
30862;SDS011;17573;55.922;37.540;2023-02-01T00:04:02;20.92;;;12.85;;
30862;SDS011;17573;55.922;37.540;2023-02-01T00:06:28;24.73;;;13.88;;
30862;SDS011;17573;55.922;37.540;2023-02-01T00:08:54;31.75;;;14.35;;
30862;SDS011;17573;55.922;37.540;2023-02-01T00:11:21;37.22;;;15.57;;
30862;SDS011;17573;55.922;37.540;2023-02-01T00:13:47;19.38;;;12.23;;
30862;SDS011;17573;55.922;37.540;2023-02-01T00:18:44;26.10;;;13.73;;
30862;SDS011;17573;55.922;37.540;2023-02-01T00:21:11;28.75;;;16.42;;
30862;SDS011;17573;55.922;37.540;2023-02-01T00:23:38;29.50;;;16.75;;
30862;SDS011;17573;55.922;37.540;2023-02-01T00:26:04;28.73;;;15.85;;
30862;SDS011;17573;55.922;37.540;2023-02-01T00:28:31;29.55;;;16.20;;
30862;SDS011;17573;55.922;37.540;2023-02-01T00:30:58;35.42;;;15.63;;
30862;SDS011;17573;55.922;37.540;2023-02-01T00:33:26;29.55;;;15.75;;
30862;SDS011;17573;55.922;37.540;2023-02-01T00:35:57;34.63;;;16.45;;
30862;SDS011;17573;55.922;37.540;2023-02-01T00:38:24;25.73;;;16.38;;
30862;SDS011;17573;55.922;37.540;2023-02-01T00:40:51;31.08;;;17.65;;
30862;SDS011;17573;55.922;37.540;2023-02-01T00:43:17;38.97;;;18.35;;
30862;SDS011;17573;55.922;37.540;2023-02-01T00:45:44;31.73;;;17.42;;
30862;SDS011;17573;55.922;37.540;2023-02-01T00:48:11;37.03;;;16.98;;
30862;SDS011;17573;55.922;37.540;2023-02-01T00:50:41;31.67;;;18.52;;
30862;SDS011;17573;55.922;37.540;2023-02-01T00:53:08;35.10;;;18.67;;
30862;SDS011;17573;55.922;37.540;2023-02-01T00:55:34;33.92;;;18.70;;
30862;SDS011;17573;55.922;37.540;2023-02-01T00:58:00;29.75;;;16.13;;
30862;SDS011;17573;55.922;37.540;2023-02-01T01:00:26;32.97;;;17.88;;
30862;SDS011;17573;55.922;37.540;2023-02-01T01:02:52;33.25;;;19.45;;
30862;SDS011;17573;55.922;37.540;2023-02-01T01:05:19;30.10;;;17.92;;
30862;SDS011;17573;55.922;37.540;2023-02-01T01:07:45;28.80;;;16.90;;
30862;SDS011;17573;55.922;37.540;2023-02-01T01:10:11;34.08;;;18.08;;
30862;SDS011;17573;55.922;37.540;2023-02-01T01:12:37;33.13;;;17.92;;
30862;SDS011;17573;55.922;37.540;2023-02-01T01:15:03;26.00;;;15.68;;
30862;SDS011;17573;55.922;37.540;2023-02-01T01:17:30;28.52;;;14.70;;
30862;SDS011;17573;55.922;37.540;2023-02-01T01:19:57;33.95;;;17.50;;
30862;SDS011;17573;55.922;37.540;2023-02-01T01:22:22;27.05;;;16.15;;
30862;SDS011;17573;55.922;37.540;2023-02-01T01:24:48;28.55;;;14.48;;
30862;SDS011;17573;55.922;37.540;2023-02-01T01:27:14;23.35;;;14.05;;
30862;SDS011;17573;55.922;37.540;2023-02-01T01:29:40;26.83;;;15.27;;
30862;SDS011;17573;55.922;37.540;2023-02-01T01:32:06;28.55;;;15.20;;
30862;SDS011;17573;55.922;37.540;2023-02-01T01:34:32;22.48;;;14.25;;
30862;SDS011;17573;55.922;37.540;2023-02-01T01:36:58;26.35;;;13.73;;
30862;SDS011;17573;55.922;37.540;2023-02-01T01:39:24;21.08;;;12.63;;
30862;SDS011;17573;55.922;37.540;2023-02-01T01:41:50;22.38;;;12.10;;
30862;SDS011;17573;55.922;37.540;2023-02-01T01:47:23;25.92;;;13.95;;
30862;SDS011;17573;55.922;37.540;2023-02-01T01:49:50;24.90;;;13.02;;
30862;SDS011;17573;55.922;37.540;2023-02-01T01:52:16;25.38;;;13.25;;
30862;SDS011;17573;55.922;37.540;2023-02-01T01:54:45;31.48;;;17.00;;
30862;SDS011;17573;55.922;37.540;2023-02-01T01:57:20;28.60;;;15.38;;
30862;SDS011;17573;55.922;37.540;2023-02-01T01:59:54;30.13;;;14.38;;
30862;SDS011;17573;55.922;37.540;2023-02-01T02:02:39;25.00;;;14.63;;
30862;SDS011;17573;55.922;37.540;2023-02-01T02:05:07;25.75;;;14.70;;
30862;SDS011;17573;55.922;37.540;2023-02-01T02:07:35;31.05;;;15.90;;
30862;SDS011;17573;55.922;37.540;2023-02-01T02:10:06;31.27;;;16.65;;
30862;SDS011;17573;55.922;37.540;2023-02-01T02:12:38;24.80;;;14.38;;
30862;SDS011;17573;55.922;37.540;2023-02-01T02:15:06;25.92;;;15.35;;
30862;SDS011;17573;55.922;37.540;2023-02-01T02:31:40;28.27;;;15.07;;
30862;SDS011;17573;55.922;37.540;2023-02-01T02:37:04;24.25;;;14.90;;
30862;SDS011;17573;55.922;37.540;2023-02-01T02:42:12;22.15;;;13.18;;
30862;SDS011;17573;55.922;37.540;2023-02-01T02:45:03;25.65;;;13.38;;
30862;SDS011;17573;55.922;37.540;2023-02-01T02:47:56;26.25;;;14.68;;
30862;SDS011;17573;55.922;37.540;2023-02-01T02:50:32;29.33;;;13.02;;
30862;SDS011;17573;55.922;37.540;2023-02-01T02:53:21;26.40;;;14.65;;
30862;SDS011;17573;55.922;37.540;2023-02-01T02:56:09;27.15;;;14.73;;
30862;SDS011;17573;55.922;37.540;2023-02-01T02:58:55;29.60;;;14.90;;
30862;SDS011;17573;55.922;37.540;2023-02-01T03:01:40;21.60;;;12.48;;
30862;SDS011;17573;55.922;37.540;2023-02-01T03:04:24;30.42;;;14.20;;
30862;SDS011;17573;55.922;37.540;2023-02-01T03:06:51;30.98;;;15.35;;
30862;SDS011;17573;55.922;37.540;2023-02-01T03:09:21;29.55;;;15.52;;
30862;SDS011;17573;55.922;37.540;2023-02-01T03:11:52;32.50;;;16.27;;
30862;SDS011;17573;55.922;37.540;2023-02-01T03:14:41;37.80;;;15.88;;
30862;SDS011;17573;55.922;37.540;2023-02-01T03:17:13;27.02;;;15.27;;
30862;SDS011;17573;55.922;37.540;2023-02-01T03:19:41;28.80;;;15.55;;
30862;SDS011;17573;55.922;37.540;2023-02-01T03:22:14;32.08;;;15.77;;
30862;SDS011;17573;55.922;37.540;2023-02-01T03:24:55;25.67;;;15.07;;
30862;SDS011;17573;55.922;37.540;2023-02-01T03:27:40;31.35;;;13.23;;
30862;SDS011;17573;55.922;37.540;2023-02-01T03:33:06;22.70;;;13.43;;
30862;SDS011;17573;55.922;37.540;2023-02-01T03:38:40;25.73;;;15.55;;
30862;SDS011;17573;55.922;37.540;2023-02-01T03:44:16;22.10;;;12.13;;
30862;SDS011;17573;55.922;37.540;2023-02-01T03:49:49;24.50;;;12.02;;
30862;SDS011;17573;55.922;37.540;2023-02-01T03:52:18;20.52;;;13.07;;
30862;SDS011;17573;55.922;37.540;2023-02-01T03:54:51;17.73;;;12.10;;
30862;SDS011;17573;55.922;37.540;2023-02-01T03:57:23;23.52;;;13.88;;
30862;SDS011;17573;55.922;37.540;2023-02-01T03:59:53;20.08;;;11.82;;
30862;SDS011;17573;55.922;37.540;2023-02-01T04:02:18;23.02;;;12.77;;
30862;SDS011;17573;55.922;37.540;2023-02-01T04:04:44;22.02;;;13.13;;
30862;SDS011;17573;55.922;37.540;2023-02-01T04:07:14;26.23;;;14.77;;
30862;SDS011;17573;55.922;37.540;2023-02-01T04:09:42;23.17;;;13.18;;
30862;SDS011;17573;55.922;37.540;2023-02-01T04:12:08;22.08;;;14.43;;
30862;SDS011;17573;55.922;37.540;2023-02-01T04:14:34;20.35;;;12.65;;
30862;SDS011;17573;55.922;37.540;2023-02-01T04:16:59;20.13;;;11.45;;
30862;SDS011;17573;55.922;37.540;2023-02-01T04:19:25;33.70;;;14.88;;
30862;SDS011;17573;55.922;37.540;2023-02-01T04:21:51;25.00;;;14.30;;
30862;SDS011;17573;55.922;37.540;2023-02-01T04:24:18;26.55;;;13.60;;
30862;SDS011;17573;55.922;37.540;2023-02-01T04:26:43;26.73;;;14.48;;
30862;SDS011;17573;55.922;37.540;2023-02-01T04:29:09;29.15;;;15.50;;
30862;SDS011;17573;55.922;37.540;2023-02-01T04:31:35;25.63;;;14.57;;
30862;SDS011;17573;55.922;37.540;2023-02-01T04:34:01;30.02;;;16.25;;
30862;SDS011;17573;55.922;37.540;2023-02-01T04:36:27;31.15;;;15.25;;
30862;SDS011;17573;55.922;37.540;2023-02-01T04:38:53;29.00;;;16.23;;
30862;SDS011;17573;55.922;37.540;2023-02-01T04:41:19;28.42;;;17.52;;
30862;SDS011;17573;55.922;37.540;2023-02-01T04:43:49;23.77;;;14.68;;
30862;SDS011;17573;55.922;37.540;2023-02-01T04:46:16;27.20;;;15.18;;
30862;SDS011;17573;55.922;37.540;2023-02-01T04:48:42;29.45;;;15.32;;
30862;SDS011;17573;55.922;37.540;2023-02-01T04:51:08;34.88;;;16.58;;
30862;SDS011;17573;55.922;37.540;2023-02-01T04:53:37;30.83;;;15.73;;
30862;SDS011;17573;55.922;37.540;2023-02-01T04:56:03;24.30;;;14.27;;
30862;SDS011;17573;55.922;37.540;2023-02-01T04:58:30;24.58;;;14.40;;
30862;SDS011;17573;55.922;37.540;2023-02-01T05:00:56;28.63;;;15.13;;
30862;SDS011;17573;55.922;37.540;2023-02-01T05:03:22;39.92;;;17.85;;
30862;SDS011;17573;55.922;37.540;2023-02-01T05:05:48;30.02;;;14.80;;
30862;SDS011;17573;55.922;37.540;2023-02-01T05:08:15;31.10;;;16.67;;
30862;SDS011;17573;55.922;37.540;2023-02-01T05:10:41;32.33;;;15.75;;
30862;SDS011;17573;55.922;37.540;2023-02-01T05:13:08;39.47;;;16.27;;
30862;SDS011;17573;55.922;37.540;2023-02-01T05:15:52;32.05;;;14.32;;
30862;SDS011;17573;55.922;37.540;2023-02-01T05:18:18;31.15;;;16.13;;
30862;SDS011;17573;55.922;37.540;2023-02-01T05:20:44;45.42;;;17.77;;
30862;SDS011;17573;55.922;37.540;2023-02-01T05:23:10;26.20;;;14.73;;
30862;SDS011;17573;55.922;37.540;2023-02-01T05:25:36;35.65;;;16.92;;
30862;SDS011;17573;55.922;37.540;2023-02-01T05:28:02;34.15;;;17.65;;
30862;SDS011;17573;55.922;37.540;2023-02-01T05:30:28;30.33;;;15.27;;
30862;SDS011;17573;55.922;37.540;2023-02-01T05:32:55;37.97;;;17.60;;
30862;SDS011;17573;55.922;37.540;2023-02-01T05:35:21;37.55;;;16.48;;
30862;SDS011;17573;55.922;37.540;2023-02-01T05:37:46;41.20;;;19.25;;
30862;SDS011;17573;55.922;37.540;2023-02-01T05:40:12;31.17;;;17.23;;
30862;SDS011;17573;55.922;37.540;2023-02-01T05:42:38;34.97;;;18.38;;
30862;SDS011;17573;55.922;37.540;2023-02-01T05:45:04;45.78;;;22.02;;
30862;SDS011;17573;55.922;37.540;2023-02-01T05:47:33;40.05;;;19.33;;
30862;SDS011;17573;55.922;37.540;2023-02-01T05:49:59;46.47;;;20.25;;
30862;SDS011;17573;55.922;37.540;2023-02-01T05:52:24;42.40;;;18.85;;
30862;SDS011;17573;55.922;37.540;2023-02-01T05:54:50;41.28;;;18.55;;
30862;SDS011;17573;55.922;37.540;2023-02-01T05:57:18;40.05;;;19.38;;
30862;SDS011;17573;55.922;37.540;2023-02-01T05:59:44;37.60;;;17.45;;
30862;SDS011;17573;55.922;37.540;2023-02-01T06:02:11;37.38;;;18.73;;
30862;SDS011;17573;55.922;37.540;2023-02-01T06:04:37;40.13;;;19.45;;
30862;SDS011;17573;55.922;37.540;2023-02-01T06:07:05;34.83;;;17.83;;
30862;SDS011;17573;55.922;37.540;2023-02-01T06:09:33;29.13;;;15.00;;
30862;SDS011;17573;55.922;37.540;2023-02-01T06:11:59;41.38;;;18.52;;
30862;SDS011;17573;55.922;37.540;2023-02-01T06:14:26;32.63;;;17.85;;
30862;SDS011;17573;55.922;37.540;2023-02-01T06:16:53;36.95;;;18.85;;
30862;SDS011;17573;55.922;37.540;2023-02-01T06:19:20;32.13;;;17.60;;
30862;SDS011;17573;55.922;37.540;2023-02-01T06:21:47;36.58;;;18.65;;
30862;SDS011;17573;55.922;37.540;2023-02-01T06:24:13;36.35;;;18.48;;
30862;SDS011;17573;55.922;37.540;2023-02-01T06:26:39;45.33;;;19.90;;
30862;SDS011;17573;55.922;37.540;2023-02-01T06:29:05;45.35;;;21.15;;
30862;SDS011;17573;55.922;37.540;2023-02-01T06:31:33;52.42;;;21.33;;
30862;SDS011;17573;55.922;37.540;2023-02-01T06:33:58;47.75;;;21.45;;
30862;SDS011;17573;55.922;37.540;2023-02-01T06:36:24;43.20;;;21.05;;
30862;SDS011;17573;55.922;37.540;2023-02-01T06:38:50;42.47;;;20.58;;
30862;SDS011;17573;55.922;37.540;2023-02-01T06:41:16;38.92;;;19.88;;
30862;SDS011;17573;55.922;37.540;2023-02-01T06:43:42;44.13;;;18.08;;
30862;SDS011;17573;55.922;37.540;2023-02-01T06:46:11;36.45;;;21.17;;
30862;SDS011;17573;55.922;37.540;2023-02-01T06:48:37;39.75;;;20.35;;
30862;SDS011;17573;55.922;37.540;2023-02-01T06:51:03;52.70;;;20.70;;
30862;SDS011;17573;55.922;37.540;2023-02-01T06:53:30;44.17;;;21.63;;
30862;SDS011;17573;55.922;37.540;2023-02-01T06:56:01;44.80;;;21.23;;
30862;SDS011;17573;55.922;37.540;2023-02-01T06:58:31;49.35;;;21.38;;
30862;SDS011;17573;55.922;37.540;2023-02-01T07:00:58;41.72;;;20.27;;
30862;SDS011;17573;55.922;37.540;2023-02-01T07:03:29;42.85;;;21.73;;
30862;SDS011;17573;55.922;37.540;2023-02-01T07:05:56;40.97;;;20.92;;
30862;SDS011;17573;55.922;37.540;2023-02-01T07:08:26;35.10;;;14.88;;
30862;SDS011;17573;55.922;37.540;2023-02-01T07:10:53;38.60;;;16.98;;
30862;SDS011;17573;55.922;37.540;2023-02-01T07:13:19;38.40;;;18.40;;
30862;SDS011;17573;55.922;37.540;2023-02-01T07:15:45;28.75;;;16.40;;
30862;SDS011;17573;55.922;37.540;2023-02-01T07:18:14;42.13;;;21.45;;
30862;SDS011;17573;55.922;37.540;2023-02-01T07:20:41;41.33;;;20.75;;
30862;SDS011;17573;55.922;37.540;2023-02-01T07:23:09;47.05;;;23.13;;
30862;SDS011;17573;55.922;37.540;2023-02-01T07:25:35;50.45;;;21.98;;
30862;SDS011;17573;55.922;37.540;2023-02-01T07:28:02;42.33;;;20.13;;
30862;SDS011;17573;55.922;37.540;2023-02-01T07:30:28;43.00;;;21.50;;
30862;SDS011;17573;55.922;37.540;2023-02-01T07:32:53;53.08;;;23.65;;
30862;SDS011;17573;55.922;37.540;2023-02-01T07:35:19;49.97;;;20.05;;
30862;SDS011;17573;55.922;37.540;2023-02-01T07:37:45;44.10;;;20.90;;
30862;SDS011;17573;55.922;37.540;2023-02-01T07:40:11;40.03;;;19.00;;
30862;SDS011;17573;55.922;37.540;2023-02-01T07:42:38;51.47;;;22.52;;
30862;SDS011;17573;55.922;37.540;2023-02-01T07:45:04;41.88;;;18.88;;
30862;SDS011;17573;55.922;37.540;2023-02-01T07:47:30;47.85;;;19.60;;
30862;SDS011;17573;55.922;37.540;2023-02-01T07:49:56;43.10;;;19.67;;
30862;SDS011;17573;55.922;37.540;2023-02-01T07:52:22;41.63;;;20.52;;
30862;SDS011;17573;55.922;37.540;2023-02-01T07:54:48;47.63;;;22.10;;
30862;SDS011;17573;55.922;37.540;2023-02-01T07:57:14;57.60;;;22.98;;
30862;SDS011;17573;55.922;37.540;2023-02-01T07:59:40;39.50;;;18.65;;
30862;SDS011;17573;55.922;37.540;2023-02-01T08:02:26;46.60;;;20.30;;
30862;SDS011;17573;55.922;37.540;2023-02-01T08:04:52;44.65;;;18.80;;
30862;SDS011;17573;55.922;37.540;2023-02-01T08:07:17;44.42;;;22.15;;
30862;SDS011;17573;55.922;37.540;2023-02-01T08:09:43;48.22;;;23.77;;
30862;SDS011;17573;55.922;37.540;2023-02-01T08:12:09;46.83;;;20.80;;
30862;SDS011;17573;55.922;37.540;2023-02-01T08:14:35;56.58;;;22.23;;
30862;SDS011;17573;55.922;37.540;2023-02-01T08:17:01;43.17;;;19.00;;
30862;SDS011;17573;55.922;37.540;2023-02-01T08:19:27;43.10;;;21.90;;
30862;SDS011;17573;55.922;37.540;2023-02-01T08:21:53;47.55;;;20.30;;
30862;SDS011;17573;55.922;37.540;2023-02-01T08:24:19;46.85;;;21.40;;
30862;SDS011;17573;55.922;37.540;2023-02-01T08:26:45;50.88;;;23.67;;
30862;SDS011;17573;55.922;37.540;2023-02-01T08:29:10;49.95;;;25.45;;
30862;SDS011;17573;55.922;37.540;2023-02-01T08:31:38;57.63;;;26.98;;
30862;SDS011;17573;55.922;37.540;2023-02-01T08:34:07;45.97;;;20.35;;
30862;SDS011;17573;55.922;37.540;2023-02-01T08:36:34;46.67;;;21.58;;
30862;SDS011;17573;55.922;37.540;2023-02-01T08:39:00;42.58;;;17.25;;
30862;SDS011;17573;55.922;37.540;2023-02-01T08:41:28;22.63;;;13.23;;
30862;SDS011;17573;55.922;37.540;2023-02-01T08:43:55;52.72;;;23.45;;
30862;SDS011;17573;55.922;37.540;2023-02-01T08:46:21;55.00;;;25.98;;
30862;SDS011;17573;55.922;37.540;2023-02-01T08:48:48;50.95;;;23.50;;
30862;SDS011;17573;55.922;37.540;2023-02-01T08:51:14;50.58;;;22.27;;
30862;SDS011;17573;55.922;37.540;2023-02-01T08:53:42;55.33;;;24.73;;
30862;SDS011;17573;55.922;37.540;2023-02-01T08:56:09;51.92;;;23.23;;
30862;SDS011;17573;55.922;37.540;2023-02-01T08:58:36;51.85;;;21.38;;
30862;SDS011;17573;55.922;37.540;2023-02-01T09:01:06;47.97;;;21.73;;
30862;SDS011;17573;55.922;37.540;2023-02-01T09:03:33;42.53;;;21.58;;
30862;SDS011;17573;55.922;37.540;2023-02-01T09:06:03;52.75;;;23.02;;
30862;SDS011;17573;55.922;37.540;2023-02-01T09:08:30;46.17;;;23.05;;
30862;SDS011;17573;55.922;37.540;2023-02-01T09:11:06;44.97;;;24.05;;
30862;SDS011;17573;55.922;37.540;2023-02-01T09:13:33;55.92;;;23.98;;
30862;SDS011;17573;55.922;37.540;2023-02-01T09:16:01;53.80;;;24.35;;
30862;SDS011;17573;55.922;37.540;2023-02-01T09:18:26;56.42;;;24.38;;
30862;SDS011;17573;55.922;37.540;2023-02-01T09:20:52;43.00;;;21.38;;
30862;SDS011;17573;55.922;37.540;2023-02-01T09:23:18;52.30;;;21.38;;
30862;SDS011;17573;55.922;37.540;2023-02-01T09:25:46;54.67;;;24.48;;
30862;SDS011;17573;55.922;37.540;2023-02-01T09:28:12;45.08;;;21.65;;
30862;SDS011;17573;55.922;37.540;2023-02-01T09:30:38;51.47;;;23.75;;
30862;SDS011;17573;55.922;37.540;2023-02-01T09:33:04;62.95;;;26.42;;
30862;SDS011;17573;55.922;37.540;2023-02-01T09:35:30;42.83;;;20.55;;
30862;SDS011;17573;55.922;37.540;2023-02-01T09:37:56;56.85;;;24.38;;
30862;SDS011;17573;55.922;37.540;2023-02-01T09:40:22;51.38;;;20.58;;
30862;SDS011;17573;55.922;37.540;2023-02-01T09:43:00;43.08;;;21.90;;
30862;SDS011;17573;55.922;37.540;2023-02-01T09:48:52;36.20;;;18.13;;
30862;SDS011;17573;55.922;37.540;2023-02-01T09:51:21;36.85;;;15.85;;
30862;SDS011;17573;55.922;37.540;2023-02-01T09:53:59;46.35;;;19.48;;
30862;SDS011;17573;55.922;37.540;2023-02-01T09:56:39;37.35;;;17.27;;
30862;SDS011;17573;55.922;37.540;2023-02-01T09:59:17;42.03;;;21.77;;
30862;SDS011;17573;55.922;37.540;2023-02-01T10:01:46;44.38;;;21.40;;
30862;SDS011;17573;55.922;37.540;2023-02-01T10:04:12;39.45;;;20.13;;
30862;SDS011;17573;55.922;37.540;2023-02-01T10:15:02;38.33;;;17.45;;
30862;SDS011;17573;55.922;37.540;2023-02-01T10:17:44;45.92;;;20.00;;
30862;SDS011;17573;55.922;37.540;2023-02-01T10:28:22;34.15;;;18.25;;
30862;SDS011;17573;55.922;37.540;2023-02-01T10:30:50;44.83;;;22.48;;
30862;SDS011;17573;55.922;37.540;2023-02-01T10:33:24;34.72;;;20.00;;
30862;SDS011;17573;55.922;37.540;2023-02-01T10:36:01;38.80;;;20.47;;
30862;SDS011;17573;55.922;37.540;2023-02-01T10:38:34;39.65;;;18.73;;
30862;SDS011;17573;55.922;37.540;2023-02-01T10:41:04;32.85;;;19.95;;
30862;SDS011;17573;55.922;37.540;2023-02-01T10:43:42;41.13;;;20.88;;
30862;SDS011;17573;55.922;37.540;2023-02-01T10:46:09;35.58;;;19.05;;
30862;SDS011;17573;55.922;37.540;2023-02-01T10:48:35;44.03;;;19.77;;
30862;SDS011;17573;55.922;37.540;2023-02-01T10:56:23;38.60;;;20.40;;
30862;SDS011;17573;55.922;37.540;2023-02-01T10:58:51;39.30;;;21.42;;
30862;SDS011;17573;55.922;37.540;2023-02-01T11:01:38;48.05;;;21.60;;
30862;SDS011;17573;55.922;37.540;2023-02-01T11:04:24;38.88;;;21.27;;
30862;SDS011;17573;55.922;37.540;2023-02-01T11:07:08;37.88;;;17.73;;
30862;SDS011;17573;55.922;37.540;2023-02-01T11:09:42;33.92;;;18.13;;
30862;SDS011;17573;55.922;37.540;2023-02-01T11:12:24;38.15;;;17.83;;
30862;SDS011;17573;55.922;37.540;2023-02-01T11:15:18;39.78;;;21.10;;
30862;SDS011;17573;55.922;37.540;2023-02-01T11:17:48;37.63;;;16.10;;
30862;SDS011;17573;55.922;37.540;2023-02-01T11:20:21;41.38;;;20.52;;
30862;SDS011;17573;55.922;37.540;2023-02-01T11:22:56;41.22;;;19.25;;
30862;SDS011;17573;55.922;37.540;2023-02-01T11:25:23;49.28;;;24.15;;
30862;SDS011;17573;55.922;37.540;2023-02-01T11:27:49;57.03;;;28.40;;
30862;SDS011;17573;55.922;37.540;2023-02-01T11:30:17;47.95;;;24.83;;
30862;SDS011;17573;55.922;37.540;2023-02-01T11:33:02;46.42;;;22.80;;
30862;SDS011;17573;55.922;37.540;2023-02-01T11:35:30;49.53;;;22.48;;
30862;SDS011;17573;55.922;37.540;2023-02-01T11:37:57;41.08;;;21.23;;
30862;SDS011;17573;55.922;37.540;2023-02-01T11:40:28;49.97;;;23.33;;
30862;SDS011;17573;55.922;37.540;2023-02-01T11:45:33;63.05;;;27.50;;
30862;SDS011;17573;55.922;37.540;2023-02-01T11:48:07;52.53;;;26.00;;
30862;SDS011;17573;55.922;37.540;2023-02-01T11:53:18;61.38;;;26.85;;
30862;SDS011;17573;55.922;37.540;2023-02-01T12:01:30;47.85;;;24.13;;
30862;SDS011;17573;55.922;37.540;2023-02-01T12:04:13;55.47;;;26.27;;
30862;SDS011;17573;55.922;37.540;2023-02-01T12:06:51;50.20;;;24.80;;
30862;SDS011;17573;55.922;37.540;2023-02-01T12:09:21;57.45;;;24.83;;
30862;SDS011;17573;55.922;37.540;2023-02-01T12:12:06;48.67;;;23.60;;
30862;SDS011;17573;55.922;37.540;2023-02-01T12:23:06;45.28;;;23.27;;
30862;SDS011;17573;55.922;37.540;2023-02-01T12:26:20;30.08;;;14.48;;
30862;SDS011;17573;55.922;37.540;2023-02-01T12:39:23;30.13;;;15.25;;
30862;SDS011;17573;55.922;37.540;2023-02-01T12:50:30;49.15;;;26.25;;
30862;SDS011;17573;55.922;37.540;2023-02-01T12:53:24;54.25;;;25.50;;
30862;SDS011;17573;55.922;37.540;2023-02-01T12:55:54;50.92;;;25.30;;
30862;SDS011;17573;55.922;37.540;2023-02-01T12:59:05;45.22;;;25.42;;
30862;SDS011;17573;55.922;37.540;2023-02-01T13:01:14;52.65;;;23.77;;
30862;SDS011;17573;55.922;37.540;2023-02-01T13:03:44;47.60;;;21.00;;
30862;SDS011;17573;55.922;37.540;2023-02-01T13:06:41;57.35;;;25.80;;
30862;SDS011;17573;55.922;37.540;2023-02-01T13:12:24;54.22;;;27.70;;
30862;SDS011;17573;55.922;37.540;2023-02-01T13:14:56;49.83;;;26.38;;
30862;SDS011;17573;55.922;37.540;2023-02-01T13:17:30;45.08;;;21.48;;
30862;SDS011;17573;55.922;37.540;2023-02-01T13:20:59;53.92;;;27.05;;
30862;SDS011;17573;55.922;37.540;2023-02-01T13:23:16;45.05;;;23.70;;
30862;SDS011;17573;55.922;37.540;2023-02-01T13:25:48;49.28;;;25.17;;
30862;SDS011;17573;55.922;37.540;2023-02-01T13:39:26;35.67;;;18.65;;
30862;SDS011;17573;55.922;37.540;2023-02-01T13:42:15;42.60;;;21.35;;
30862;SDS011;17573;55.922;37.540;2023-02-01T13:44:48;45.28;;;22.80;;
30862;SDS011;17573;55.922;37.540;2023-02-01T13:47:27;45.22;;;21.48;;
30862;SDS011;17573;55.922;37.540;2023-02-01T13:49:55;41.28;;;20.45;;
30862;SDS011;17573;55.922;37.540;2023-02-01T13:52:27;39.60;;;21.90;;
30862;SDS011;17573;55.922;37.540;2023-02-01T13:55:02;39.83;;;19.98;;
30862;SDS011;17573;55.922;37.540;2023-02-01T13:57:41;35.97;;;18.17;;
30862;SDS011;17573;55.922;37.540;2023-02-01T14:00:25;38.85;;;16.98;;
30862;SDS011;17573;55.922;37.540;2023-02-01T14:03:05;34.13;;;18.40;;
30862;SDS011;17573;55.922;37.540;2023-02-01T14:23:41;28.83;;;16.98;;
30862;SDS011;17573;55.922;37.540;2023-02-01T14:26:09;32.25;;;15.73;;
30862;SDS011;17573;55.922;37.540;2023-02-01T14:28:42;30.08;;;15.50;;
30862;SDS011;17573;55.922;37.540;2023-02-01T14:31:14;31.60;;;18.23;;
30862;SDS011;17573;55.922;37.540;2023-02-01T14:34:00;28.73;;;16.58;;
30862;SDS011;17573;55.922;37.540;2023-02-01T14:36:38;34.42;;;13.98;;
30862;SDS011;17573;55.922;37.540;2023-02-01T14:39:18;36.80;;;18.13;;
30862;SDS011;17573;55.922;37.540;2023-02-01T14:41:46;32.85;;;18.17;;
30862;SDS011;17573;55.922;37.540;2023-02-01T14:44:14;33.30;;;17.67;;
30862;SDS011;17573;55.922;37.540;2023-02-01T14:47:07;32.55;;;19.33;;
30862;SDS011;17573;55.922;37.540;2023-02-01T14:52:45;26.02;;;15.35;;
30862;SDS011;17573;55.922;37.540;2023-02-01T14:57:53;29.35;;;16.48;;
30862;SDS011;17573;55.922;37.540;2023-02-01T15:00:26;26.60;;;13.57;;
30862;SDS011;17573;55.922;37.540;2023-02-01T15:02:54;33.50;;;14.70;;
30862;SDS011;17573;55.922;37.540;2023-02-01T15:05:37;31.00;;;15.20;;
30862;SDS011;17573;55.922;37.540;2023-02-01T15:08:05;29.67;;;14.88;;
30862;SDS011;17573;55.922;37.540;2023-02-01T15:10:39;27.67;;;15.27;;
30862;SDS011;17573;55.922;37.540;2023-02-01T15:13:24;27.38;;;13.13;;
30862;SDS011;17573;55.922;37.540;2023-02-01T15:18:39;30.88;;;13.68;;
30862;SDS011;17573;55.922;37.540;2023-02-01T15:21:06;32.47;;;15.93;;
30862;SDS011;17573;55.922;37.540;2023-02-01T15:23:38;27.17;;;16.10;;
30862;SDS011;17573;55.922;37.540;2023-02-01T15:26:04;37.20;;;16.08;;
30862;SDS011;17573;55.922;37.540;2023-02-01T15:28:30;33.20;;;17.13;;
30862;SDS011;17573;55.922;37.540;2023-02-01T15:33:21;35.05;;;16.17;;
30862;SDS011;17573;55.922;37.540;2023-02-01T15:35:48;33.60;;;16.83;;
30862;SDS011;17573;55.922;37.540;2023-02-01T15:38:39;38.67;;;21.67;;
30862;SDS011;17573;55.922;37.540;2023-02-01T15:41:16;35.13;;;18.55;;
30862;SDS011;17573;55.922;37.540;2023-02-01T15:43:45;33.25;;;18.17;;
30862;SDS011;17573;55.922;37.540;2023-02-01T15:46:35;37.78;;;16.90;;
30862;SDS011;17573;55.922;37.540;2023-02-01T15:49:03;22.83;;;14.48;;
30862;SDS011;17573;55.922;37.540;2023-02-01T15:51:31;26.13;;;13.18;;
30862;SDS011;17573;55.922;37.540;2023-02-01T15:54:01;22.52;;;11.60;;
30862;SDS011;17573;55.922;37.540;2023-02-01T15:56:36;30.98;;;16.90;;
30862;SDS011;17573;55.922;37.540;2023-02-01T15:59:04;42.28;;;16.40;;
30862;SDS011;17573;55.922;37.540;2023-02-01T16:01:36;27.25;;;13.15;;
30862;SDS011;17573;55.922;37.540;2023-02-01T16:04:20;32.83;;;16.42;;
30862;SDS011;17573;55.922;37.540;2023-02-01T16:06:50;34.65;;;16.23;;
30862;SDS011;17573;55.922;37.540;2023-02-01T16:09:24;29.85;;;17.73;;
30862;SDS011;17573;55.922;37.540;2023-02-01T16:12:01;26.67;;;14.57;;
30862;SDS011;17573;55.922;37.540;2023-02-01T16:14:29;30.55;;;16.02;;
30862;SDS011;17573;55.922;37.540;2023-02-01T16:16:56;26.23;;;14.27;;
30862;SDS011;17573;55.922;37.540;2023-02-01T16:19:23;32.03;;;16.33;;
30862;SDS011;17573;55.922;37.540;2023-02-01T16:21:56;31.73;;;14.65;;
30862;SDS011;17573;55.922;37.540;2023-02-01T16:24:23;27.15;;;14.48;;
30862;SDS011;17573;55.922;37.540;2023-02-01T16:26:51;27.90;;;15.05;;
30862;SDS011;17573;55.922;37.540;2023-02-01T16:29:17;28.83;;;17.38;;
30862;SDS011;17573;55.922;37.540;2023-02-01T16:31:43;37.13;;;17.50;;
30862;SDS011;17573;55.922;37.540;2023-02-01T16:34:16;35.00;;;15.93;;
30862;SDS011;17573;55.922;37.540;2023-02-01T16:36:48;20.95;;;11.63;;
30862;SDS011;17573;55.922;37.540;2023-02-01T16:39:17;42.17;;;19.15;;
30862;SDS011;17573;55.922;37.540;2023-02-01T16:41:43;43.42;;;19.70;;
30862;SDS011;17573;55.922;37.540;2023-02-01T16:44:10;35.97;;;17.63;;
30862;SDS011;17573;55.922;37.540;2023-02-01T16:46:40;37.55;;;17.73;;
30862;SDS011;17573;55.922;37.540;2023-02-01T16:49:17;39.53;;;18.17;;
30862;SDS011;17573;55.922;37.540;2023-02-01T16:51:45;33.58;;;16.05;;